/BCO-DMO/Hurricane_Harvey_Water_Quality/galveston_carb_chem ---- Level 0

      Directory  DocumentationDownload and Other Operations...

 - At level 0 -  - At last level -       Flat list

#  Galveston Bay Carbonate Chemistry
#  PI: K. Shamberger
#  Data Version 1: 2022-09-28
=========================
Cruise_ID  Vessel         Date          Time_UTC  ISO_DateTime_UTC     Lat      Long       Station  Depth  Salinity  Temp     TA         DIC        HPO4     HSiO3     
-------------------------
GB0617     R/V Lithos     2017-06-05    17:04     2017-06-05T17:04Z    29.31    -94.84     1        1.78   22.55     27.46    2140.99    1933.00    1.67     22.85     
GB0617     R/V Lithos     2017-06-05    20:12     2017-06-05T20:12Z    29.46    -94.87     6        2.15   17.04     27.07    2063.78    1871.58    3.18     26.54     
GB0617     R/V Lithos     2017-06-05    22:46     2017-06-05T22:46Z    29.50    -94.76     8        1.06   15.26     27.48    1696.81    1600.54    2.34     46.94     
GB0617     R/V Lithos     2017-06-05    23:56     2017-06-05T23:56Z    29.45    -94.78     5        1.37   16.79     27.19    2007.85    1874.73    2.26     31.57     
GB0617     R/V Lithos     2017-06-08    20:48     2017-06-08T20:48Z    29.45    -94.78     5        1.63   19.38     28.96    2022.03    1797.12    2.02     29.35     
GB0617     R/V Lithos     2017-06-08    20:07     2017-06-08T20:07Z    29.47    -94.82     7        2.11   18.86     28.56    2049.58    1809.79    2.15     30.53     
GB0617     R/V Lithos     2017-06-08    17:43     2017-06-08T17:43Z    29.71    -94.74     14       1.54   7.49      27.07    1965.77    1883.93    3.43     45.34     
GB0617     R/V Lithos     2017-06-08    16:01     2017-06-08T16:01Z    29.68    -94.78     13       1.94   10.43     27.01    2005.36    1866.39    3.70     73.58     
GB0617     R/V Lithos     2017-06-08    14:27     2017-06-08T14:27Z    29.59    -94.84     10       1.98   14.12     27.16    2050.05    1911.99    2.99     49.84     
GB0917     R/V Lithos     2017-09-09    15:32     2017-09-09T15:32Z    29.40    -94.85     3        2.43   3.21      25.67    923.41     960.40     1.21     56.89     
GB0917     R/V Lithos     2017-09-09    15:32     2017-09-09T15:32Z    29.40    -94.85     3        0.46   3.18      25.69    929.42     960.88     1.54     65.10     
GB0917     R/V Lithos     2017-09-09    18:19     2017-09-09T18:19Z    29.46    -94.87     6        2.26   2.69      25.86    984.12     1007.44    1.97     74.24     
GB0917     R/V Lithos     2017-09-09    18:19     2017-09-09T18:19Z    29.46    -94.87     6        0.46   2.75      26.29    1001.86    1013.43    1.54     65.14     
GB0917     R/V Lithos     2017-09-09    20:25     2017-09-09T20:25Z    29.43    -94.86     4        0.46   1.72      26.10    908.83     931.27     0.70     58.49     
GB0917     R/V Lithos     2017-09-09    21:50     2017-09-09T21:50Z    29.31    -94.83     1        1.56   8.66      27.19    1183.66    1129.69    0.96     29.87     
GB0917     R/V Lithos     2017-09-16    14:03     2017-09-16T14:03Z    29.46    -94.87     6        1.91   15.12     27.25    1670.08    1567.33    1.70     46.38     
GB0917     R/V Lithos     2017-09-16    14:03     2017-09-16T14:03Z    29.46    -94.87     6        0.46   6.10      27.11    1302.09    1234.26    0.96     29.93     
GB0917     R/V Lithos     2017-09-16    16:19     2017-09-16T16:19Z    29.59    -94.84     10       1.71   2.53      26.60    1203.67    1185.25    1.97     74.27     
GB0917     R/V Lithos     2017-09-16    16:19     2017-09-16T16:19Z    29.59    -94.84     10       0.46   1.88      26.48    1224.09    1184.88    0.70     58.49     
GB0917     R/V Lithos     2017-09-16    18:15     2017-09-16T18:15Z    29.68    -94.78     13       1.57   1.00      26.79    1263.98    1230.05    1.07     76.40     
GB0917     R/V Lithos     2017-09-16    18:15     2017-09-16T18:15Z    29.68    -94.78     13       0.46   0.66      27.45    1277.87    1216.58    1.29     71.04     
GB0917     R/V Lithos     2017-09-16    19:40     2017-09-16T19:40Z    29.71    -94.74     14       1.12   0.18      27.30    1396.83    1420.92    2.36     91.64     
GB0917     R/V Lithos     2017-09-16    19:40     2017-09-16T19:40Z    29.71    -94.74     14       0.46   0.19      27.99    1402.76    1379.66    3.02     111.86    
GB0917     R/V Lithos     2017-09-16    22:06     2017-09-16T22:06Z    29.50    -94.76     8        0.78   2.39      28.60    1404.20    1391.52    1.21     56.97     
GB0917     R/V Lithos     2017-09-16    22:06     2017-09-16T22:06Z    29.50    -94.76     8        0.46   2.36      28.76    1184.82    1121.26    1.54     65.20     
GB1117     R/V Trident    2017-11-04    14:03     2017-11-04T14:03Z    29.31    -94.83     1        0.45   25.26     22.46    2218.62    2020.44    6.69     14.90     
GB1117     R/V Trident    2017-11-04    14:03     2017-11-04T14:03Z    29.31    -94.83     1        1.29   25.29     22.45    2228.86    2023.00    5.58     17.34     
GB1117     R/V Trident    2017-11-04    15:27     2017-11-04T15:27Z    29.37    -94.79     2        7.17   20.21     21.96    2053.75    1901.19    5.13     37.04     
GB1117     R/V Trident    2017-11-04    15:27     2017-11-04T15:27Z    29.37    -94.79     2        0.45   20.10     21.99    2044.22    1903.58    7.91     25.01     
GB1117     R/V Trident    2017-11-04    17:02     2017-11-04T17:02Z    29.50    -94.77     8        0.50   11.76     22.81    1851.67    1740.52    8.78     41.34     
GB1117     R/V Trident    2017-11-04    17:02     2017-11-04T17:02Z    29.50    -94.77     8        0.46   11.76     22.81    1832.94    1728.37    8.03     67.50     
GB1117     R/V Trident    2017-11-04    19:03     2017-11-04T19:03Z    29.71    -94.74     14       0.80   9.52      23.15    1761.79    1648.23    9.65     86.77     
GB1117     R/V Trident    2017-11-04    19:03     2017-11-04T19:03Z    29.71    -94.74     14       0.46   9.52      23.18    1751.87    1652.99    9.74     74.07     
GB1117     R/V Trident    2017-11-04    20:14     2017-11-04T20:14Z    29.64    -94.81     12       1.49   11.20     22.19    1817.18    1677.67    9.28     51.73     
GB1117     R/V Trident    2017-11-04    20:14     2017-11-04T20:14Z    29.64    -94.81     12       0.46   11.20     22.18    1808.91    1681.25    8.83     70.76     
GB1117     R/V Trident    2017-11-04    21:13     2017-11-04T21:13Z    29.61    -94.93     11       1.29   12.46     22.82    1889.26    1681.87    8.06     54.22     
GB1117     R/V Trident    2017-11-04    21:13     2017-11-04T21:13Z    29.61    -94.93     11       0.46   12.53     22.85    1875.36    1681.10    9.09     37.41     
GB1117     R/V Trident    2017-11-04    22:28     2017-11-04T22:28Z    29.53    -94.85     9        2.62   15.90     22.13    1940.28    1771.49    7.91     27.33     
GB1117     R/V Trident    2017-11-04    22:28     2017-11-04T22:28Z    29.53    -94.85     9        0.46   15.54     22.30    1909.04    1748.05    7.38     39.44     
GB1117     R/V Trident    2017-11-04    23:47     2017-11-04T23:47Z    29.46    -94.87     6        1.88   18.32     22.45    2005.57    1845.57    6.16     37.15     
GB1117     R/V Trident    2017-11-04    23:47     2017-11-04T23:47Z    29.46    -94.87     6        0.45   18.30     22.49    1998.91    1840.92    5.92     40.74     
GB0318     R/V Trident    2018-03-24    13:29     2018-03-24T13:29Z    29.31    -94.82     1        0.50   23.84     20.30    2112.67    1954.17    1.32     35.23     
GB0318     R/V Trident    2018-03-24    13:29     2018-03-24T13:29Z    29.31    -94.82     1        2.94   25.61     20.07    2139.09    1969.42    2.07     18.11     
GB0318     R/V Trident    2018-03-24    14:43     2018-03-24T14:43Z    29.38    -94.80     2        0.50   19.21     20.24    2015.58    1872.08    1.91     61.03     
GB0318     R/V Trident    2018-03-24    14:43     2018-03-24T14:43Z    29.38    -94.80     2        5.11   21.24     20.25    2042.10    1897.55    2.10     40.43     
GB0318     R/V Trident    2018-03-24    15:52     2018-03-24T15:52Z    29.45    -94.78     8        0.50   14.18     20.44    1898.97    1789.86    2.29     75.26     
GB0318     R/V Trident    2018-03-24    15:52     2018-03-24T15:52Z    29.45    -94.78     8        2.49   14.21     20.44    1898.39    1788.77    6.68     46.33     
GB0318     R/V Trident    2018-03-24    18:19     2018-03-24T18:19Z    29.71    -94.75     14       0.50   0.26      20.27    1869.98    1885.06    6.53     132.93    
GB0318     R/V Trident    2018-03-24    18:19     2018-03-24T18:19Z    29.71    -94.75     14       2.71   0.26      20.27    1863.25    1885.67    5.64     136.76    
GB0318     R/V Trident    2018-03-24    19:30     2018-03-24T19:30Z    29.65    -94.82     12       0.50   2.52      20.71    1840.77    1737.12    3.91     80.41     
GB0318     R/V Trident    2018-03-24    19:30     2018-03-24T19:30Z    29.65    -94.82     12       3.33   2.51      20.69    1839.65    1727.81    3.80     97.92     
GB0318     R/V Trident    2018-03-24    20:37     2018-03-24T20:37Z    29.61    -94.93     11       0.50   8.34      20.79    1825.23    1728.31    3.24     98.75     
GB0318     R/V Trident    2018-03-24    20:37     2018-03-24T20:37Z    29.61    -94.93     11       3.03   8.34      20.79    1824.44    1727.44    11.50    57.45     
GB0318     R/V Trident    2018-03-24    21:44     2018-03-24T21:44Z    29.53    -94.88     9        0.50   14.26     20.62    1882.14    1755.36    8.84     51.24     
GB0318     R/V Trident    2018-03-24    21:44     2018-03-24T21:44Z    29.53    -94.88     9        3.68   14.25     20.62    1880.17    1764.24    8.84     51.24     
GB0318     R/V Trident    2018-03-24    22:34     2018-03-24T22:34Z    29.46    -94.87     6        0.50   17.98     20.69    1970.85    1826.79    7.93     47.86     
GB0318     R/V Trident    2018-03-24    22:34     2018-03-24T22:34Z    29.46    -94.87     6        3.42   17.99     20.70    1970.05    1831.62    5.34     53.62     
GB0618     R/V Trident    2018-06-16    14:03     2018-06-16T14:03Z    29.32    -94.84     1        0.45   29.56     30.20    2275.80    2028.07    1.88     19.63     
GB0618     R/V Trident    2018-06-16    14:03     2018-06-16T14:03Z    29.32    -94.84     1        2.66   29.56     30.20    2271.46    2029.17    1.80     27.25     
GB0618     R/V Trident    2018-06-16    15:16     2018-06-16T15:16Z    29.38    -94.80     2        0.45   33.27     29.20    2348.69    2086.83    1.53     9.93      
GB0618     R/V Trident    2018-06-16    15:16     2018-06-16T15:16Z    29.38    -94.80     2        4.53   33.26     29.17    2349.18    2087.39    1.00     29.25     
GB0618     R/V Trident    2018-06-16    16:04     2018-06-16T16:04Z    29.41    -94.78     8        0.45   33.13     29.41    2345.23    2084.06    1.55     10.02     
GB0618     R/V Trident    2018-06-16    16:04     2018-06-16T16:04Z    29.41    -94.78     8        2.96   33.13     29.40    2345.86    2082.68    1.83     8.76      
GB0618     R/V Trident    2018-06-16    18:17     2018-06-16T18:17Z    29.71    -94.75     14       0.45   9.87      30.15    2069.70    1936.17    6.51     149.80    
GB0618     R/V Trident    2018-06-16    18:17     2018-06-16T18:17Z    29.71    -94.75     14       2.78   9.85      30.14    2069.43    1935.53    7.45     132.56    
GB0618     R/V Trident    2018-06-16    19:11     2018-06-16T19:11Z    29.65    -94.82     12       0.45   14.05     30.09    2051.49    1888.74    6.15     88.79     
GB0618     R/V Trident    2018-06-16    19:11     2018-06-16T19:11Z    29.65    -94.82     12       3.28   13.98     30.15    2051.17    1888.06    6.53     107.95    
GB0618     R/V Trident    2018-06-16    20:06     2018-06-16T20:06Z    29.61    -94.93     11       0.45   18.60     30.54    2107.78    1813.77    5.95     67.53     
GB0618     R/V Trident    2018-06-16    20:06     2018-06-16T20:06Z    29.61    -94.93     11       2.99   18.60     30.53    2103.97    1818.34    6.35     48.77     
GB0618     R/V Trident    2018-06-16    21:03     2018-06-16T21:03Z    29.53    -94.88     9        0.45   22.45     30.93    2135.00    1859.64    4.15     37.99     
GB0618     R/V Trident    2018-06-16    21:03     2018-06-16T21:03Z    29.53    -94.88     9        3.84   23.71     30.86    2155.00    1882.90    4.56     65.71     
GB0618     R/V Trident    2018-06-16    22:00     2018-06-16T22:00Z    29.46    -94.87     6        0.45   26.49     30.93    2213.29    1941.97    3.33     21.26     
GB0618     R/V Trident    2018-06-16    22:00     2018-06-16T22:00Z    29.46    -94.87     6        3.50   26.68     30.89    2214.68    1946.67    3.31     27.40     
GB0918     R/V Trident    2018-09-22    15:35     2018-09-22T15:35Z    29.61    -94.94     11       0.45   16.09     28.59    1918.92    1762.04    1.18     23.98     
GB0918     R/V Trident    2018-09-22    15:35     2018-09-22T15:35Z    29.61    -94.94     11       3.03   16.08     28.58    1908.08    1754.57    1.66     31.11     
GB0918     R/V Trident    2018-09-22    17:22     2018-09-22T17:22Z    29.71    -94.75     14       0.45   12.58     28.86    1887.93    1770.13    4.08     110.71    
GB0918     R/V Trident    2018-09-22    17:22     2018-09-22T17:22Z    29.71    -94.75     14       2.71   12.64     28.85    1888.70    1767.81    4.22     116.94    
GB0918     R/V Trident    2018-09-22    18:18     2018-09-22T18:18Z    29.65    -94.82     12       0.45   15.60     28.92    1896.98    1704.77    1.08     36.96     
GB0918     R/V Trident    2018-09-22    18:18     2018-09-22T18:18Z    29.65    -94.82     12       3.26   15.60     28.87    1898.57    1697.35    1.14     37.01     
GB0918     R/V Trident    2018-09-22    19:30     2018-09-22T19:30Z    29.53    -94.88     9        0.45   16.93     28.80    1875.86    1722.45    1.24     30.46     
GB0918     R/V Trident    2018-09-22    19:30     2018-09-22T19:30Z    29.53    -94.88     9        3.71   16.93     28.80    1866.81    1717.84    4.13     79.12     
GB0918     R/V Trident    2018-09-22    20:15     2018-09-22T20:15Z    29.46    -94.87     6        0.45   17.94     29.31    1881.02    1724.65    1.37     36.10     
GB0918     R/V Trident    2018-09-22    20:15     2018-09-22T20:15Z    29.46    -94.87     6        3.34   17.95     29.29    1881.23    1730.64    1.01     28.22     
GB0918     R/V Trident    2018-09-22    21:04     2018-09-22T21:04Z    29.45    -94.78     5        2.70   20.23     29.27    1891.58    1683.69    2.00     51.32     
GB0918     R/V Trident    2018-09-22    22:20     2018-09-22T22:20Z    29.38    -94.80     2        0.45   22.76     29.21    1982.89    1757.14    1.34     29.52     
GB0918     R/V Trident    2018-09-22    22:20     2018-09-22T22:20Z    29.38    -94.80     2        5.41   26.36     29.20    2091.46    1852.88    1.25     24.58     
WTX01      R/V Manta      2017-06-15    12:56     2017-06-15T12:56Z    28.75    -95.28     21       1.60   20.76     28.05    2268.37    1905.59    2.42     16.27     
WTX01      R/V Manta      2017-06-15    14:12     2017-06-15T14:12Z    28.67    -95.25     22       1.10   20.87     28.12    2243.53    1844.42    2.82     12.91     
WTX01      R/V Manta      2017-06-15    15:32     2017-06-15T15:32Z    28.53    -95.18     23       1.40   24.87     28.70    2180.92    1899.21    1.62     1.52      
WTX01      R/V Manta      2017-06-15    17:03     2017-06-15T17:03Z    28.40    -95.12     24       1.70   26.19     28.88    2388.59    2076.06    1.08     1.31      
WTX01      R/V Manta      2017-06-15    12:56     2017-06-15T12:56Z    28.75    -95.28     21       6.50   22.03     28.22    2157.44    1902.63    1.91     13.48     
WTX01      R/V Manta      2017-06-15    14:12     2017-06-15T14:12Z    28.67    -95.25     22       10.50  29.15     26.68    2324.69    2153.40    1.00     26.40     
WTX01      R/V Manta      2017-06-15    15:32     2017-06-15T15:32Z    28.53    -95.18     23       13.16  33.38     27.02    2322.38    2132.08    0.27     2.90      
WTX01      R/V Manta      2017-06-15    12:56     2017-06-15T12:56Z    28.75    -95.28     21       13.80  29.58     26.79    2154.78    1891.14    2.12     13.45     
WTX02      R/V Manta      2017-08-08    17:07     2017-08-08T17:07Z    28.43    -95.12     24       0.70   33.36     30.01    2396.61    2061.19    0.74     12.26     
WTX02      R/V Manta      2017-08-08    18:21     2017-08-08T18:21Z    28.54    -95.19     23       0.80   33.77     30.33    2404.02    2069.67    0.38     2.22      
WTX02      R/V Manta      2017-08-08    19:41     2017-08-08T19:41Z    28.67    -95.26     22       2.90   33.66     30.06    2410.18    2070.13    0.66     5.84      
WTX02      R/V Manta      2017-08-09    07:43     2017-08-09T07:43Z    28.81    -95.29     21       1.01   33.64     31.04    2405.60    2067.40    0.72     9.07      
WTX02      R/V Manta      2017-08-11    13:54     2017-08-11T13:54Z    29.14    -94.75     17       1.40   32.11     29.93    2371.06    2067.46    2.90     14.05     
WTX02      R/V Manta      2017-08-08    05:30     2017-08-08T05:30Z    29.14    -94.75     17       7.30   33.39     29.70    2411.08    2137.19    1.07     17.49     
WTX02      R/V Manta      2017-08-08    09:35     2017-08-08T09:35Z    28.72    -94.89     20       1.00   32.10     29.87    2385.88    2041.44    1.64     5.45      
WTX02      R/V Manta      2017-08-08    09:35     2017-08-08T09:35Z    28.72    -94.89     20       10.00  33.78     30.00    2401.19    2035.08    1.64     5.45      
WTX02      R/V Manta      2017-08-08    19:41     2017-08-08T19:41Z    28.67    -95.26     22       10.70  33.80     30.00    2413.93    2072.45    0.73     3.70      
WTX02      R/V Manta      2017-08-09    07:43     2017-08-09T07:43Z    28.81    -95.29     21       9.20   33.85     30.02    2412.33    2088.29    0.81     4.61      
WTX02      R/V Manta      2017-08-11    13:54     2017-08-11T13:54Z    29.14    -94.75     17       9.30   32.24     29.76    2379.31    2112.37    1.61     16.24     
WTX02      R/V Manta      2017-08-08    05:30     2017-08-08T05:30Z    29.14    -94.75     17       13.80  33.42     29.70    2409.25    2133.23    0.83     18.31     
WTX02      R/V Manta      2017-08-08    17:07     2017-08-08T17:07Z    28.43    -95.12     24       12.03  34.63     29.92    2405.44    2065.87    1.02     6.59      
WTX02      R/V Manta      2017-08-08    18:21     2017-08-08T18:21Z    28.54    -95.19     23       13.80  33.86     29.91    2400.25    2106.17    0.04     1.00      
WTX04      R/V Pelican    2017-11-15    13:22     2017-11-15T13:22Z    29.07    -94.89     18       15.00  31.46     22.15    2392.72    2115.22    1.85     17.73     
WTX04      R/V Pelican    2017-11-15    13:22     2017-11-15T13:22Z    29.07    -94.89     18       8.70   28.70     21.84    2385.63    2112.92    3.46     15.1      
WTX04      R/V Pelican    2017-11-15    13:22     2017-11-15T13:22Z    29.07    -94.89     18       5.00   27.73     21.51    2375.01    2110.38    1.22     25.23     
WTX04      R/V Pelican    2017-11-15    13:22     2017-11-15T13:22Z    29.07    -94.89     18       2.20   27.71     21.51    2363.51    2108.99    2        20.14     
WTX04      R/V Pelican    2017-11-15    15:33     2017-11-15T15:33Z    28.96    -95.09     19       14.80  28.98     21.96    2372.47    2094.01    1.66     13.41     
WTX04      R/V Pelican    2017-11-15    15:33     2017-11-15T15:33Z    28.96    -95.09     19       10.10  28.81     21.77    2418.80    2093.69    1.92     11.92     
WTX04      R/V Pelican    2017-11-15    15:33     2017-11-15T15:33Z    28.96    -95.09     19       4.90   28.61     21.57    2365.34    2092.81    1.72     17.33     
WTX04      R/V Pelican    2017-11-15    15:33     2017-11-15T15:33Z    28.96    -95.09     19       2.20   28.61     21.61    2363.17    2097.21    2.11     15.16     
WTX04      R/V Pelican    2017-11-15    17:35     2017-11-15T17:35Z    28.76    -95.30     21       10.10  29.25     21.87    2378.88    2099.70    1.45     12.65     
WTX04      R/V Pelican    2017-11-15    17:35     2017-11-15T17:35Z    28.76    -95.30     21       2.40   29.26     22.24    2377.16    2090.80    1.5      13.63     
WTX04      R/V Pelican    2017-11-17    23:30     2017-11-17T23:30Z    28.67    -95.26     22       9.80   32.17     22.68    2387.49    2095.06    0.83     12.02     
WTX04      R/V Pelican    2017-11-17    23:30     2017-11-17T23:30Z    28.67    -95.26     22       2.50   28.58     21.98    2347.27    2078.66    1.23     16.64     
WTX04      R/V Pelican    2017-11-18    00:36     2017-11-18T00:36Z    28.54    -95.19     23       10.30  34.30     23.28    2406.60    2079.32    1.33     5.05      
WTX04      R/V Pelican    2017-11-18    00:36     2017-11-18T00:36Z    28.54    -95.19     23       2.60   32.11     23.49    2393.17    2086.34    1.13     12.32     
WTX04      R/V Pelican    2017-11-18    01:54     2017-11-18T01:54Z    28.40    -95.12     24       10.10  34.40     23.49    2407.69    2085.26    0.53     9.51      
WTX04      R/V Pelican    2017-11-18    01:54     2017-11-18T01:54Z    28.40    -95.12     24       2.50   33.74     23.72    2404.24    2084.28    0.33     6.9       
WTX04      R/V Pelican    2017-11-20    23:23     2017-11-20T23:23Z    29.21    -94.42     15       15.10  33.95     21.68    2410.52    2091.60    0.7      6.15      
WTX04      R/V Pelican    2017-11-20    23:23     2017-11-20T23:23Z    29.21    -94.42     15       5.20   33.89     21.62    2416.49    2086.19    1.92     5.25      
WTX04      R/V Pelican    2017-11-20    23:23     2017-11-20T23:23Z    29.21    -94.42     15       2.10   33.89     21.63    2413.10    2087.95    0.93     5.2       
WTX04      R/V Pelican    2017-11-20    16:13     2017-11-20T16:13Z    28.95    -94.20     16       10.80  34.84     22.69    2430.66    2077.03    1.14     4.09      
WTX04      R/V Pelican    2017-11-20    16:13     2017-11-20T16:13Z    28.95    -94.20     16       5.30   34.84     22.69    2469.64    2077.94    0.87     4.37      
WTX04      R/V Pelican    2017-11-20    16:13     2017-11-20T16:13Z    28.95    -94.20     16       3.10   34.83     22.69    2422.42    2076.22    0.56     3.37